createdAt,value
2022-08-19T00:01:52.934Z,12.02
2022-08-19T00:04:22.189Z,10.63
2022-08-19T00:06:49.634Z,10.90
2022-08-19T00:09:18.136Z,11.23
2022-08-19T00:11:45.590Z,11.38
2022-08-19T00:14:13.769Z,11.00
2022-08-19T00:16:42.198Z,10.93
2022-08-19T00:19:09.744Z,10.60
2022-08-19T00:21:40.566Z,10.50
2022-08-19T00:24:09.042Z,10.65
2022-08-19T00:26:36.839Z,10.63
2022-08-19T00:29:04.750Z,11.50
2022-08-19T00:31:32.384Z,10.73
2022-08-19T00:34:00.092Z,11.57
2022-08-19T00:36:27.234Z,10.98
2022-08-19T00:38:54.349Z,11.10
2022-08-19T00:41:22.763Z,11.50
2022-08-19T00:43:58.416Z,11.10
2022-08-19T00:46:25.539Z,11.07
2022-08-19T00:48:52.638Z,11.25
2022-08-19T00:51:19.747Z,12.13
2022-08-19T00:53:46.961Z,11.45
2022-08-19T00:56:14.035Z,11.45
2022-08-19T00:58:41.835Z,11.70
2022-08-19T01:01:08.994Z,11.45
2022-08-19T01:03:56.777Z,11.77
2022-08-19T01:06:25.894Z,11.35
2022-08-19T01:08:53.015Z,11.55
2022-08-19T01:11:20.128Z,11.88
2022-08-19T01:13:49.483Z,11.43
2022-08-19T01:16:18.233Z,10.68
2022-08-19T01:18:45.293Z,11.57
2022-08-19T01:21:18.144Z,12.93
2022-08-19T01:23:46.073Z,11.93
2022-08-19T01:26:15.973Z,13.07
2022-08-19T01:28:44.317Z,12.95
2022-08-19T01:31:27.032Z,13.93
2022-08-19T01:33:56.609Z,13.70
2022-08-19T01:36:28.984Z,15.27
2022-08-19T01:38:56.359Z,15.57
2022-08-19T01:41:24.402Z,17.20
2022-08-19T01:44:03.238Z,17.08
2022-08-19T01:46:40.276Z,17.30
2022-08-19T01:49:09.058Z,17.58
2022-08-19T01:51:38.448Z,19.02
2022-08-19T01:54:07.400Z,17.73
2022-08-19T01:56:34.496Z,18.77
2022-08-19T01:59:07.820Z,17.88
2022-08-19T02:01:35.630Z,19.58
2022-08-19T02:04:03.015Z,20.35
2022-08-19T02:06:30.157Z,20.33
2022-08-19T02:08:57.835Z,20.63
2022-08-19T02:11:27.491Z,23.38
2022-08-19T02:13:55.461Z,22.75
2022-08-19T02:16:23.018Z,26.45
2022-08-19T02:18:50.858Z,28.70
2022-08-19T02:21:18.883Z,27.48
2022-08-19T02:23:46.189Z,28.35
2022-08-19T02:26:13.453Z,26.88
2022-08-19T02:28:41.406Z,26.50
2022-08-19T02:31:17.206Z,26.88
2022-08-19T02:33:44.791Z,25.73
2022-08-19T02:36:12.635Z,27.25
2022-08-19T02:38:40.610Z,27.75
2022-08-19T02:41:10.869Z,26.38
2022-08-19T02:43:39.461Z,27.80
2022-08-19T02:46:15.594Z,27.75
2022-08-19T02:48:42.905Z,27.95
2022-08-19T02:51:10.019Z,29.67
2022-08-19T02:53:38.083Z,30.02
2022-08-19T02:56:08.738Z,28.35
2022-08-19T02:58:35.992Z,27.70
2022-08-19T03:01:03.150Z,29.77
2022-08-19T03:03:30.539Z,28.25
2022-08-19T03:06:17.877Z,29.13
2022-08-19T03:08:46.674Z,27.52
2022-08-19T03:11:21.543Z,29.30
2022-08-19T03:13:51.282Z,28.70
2022-08-19T03:16:21.765Z,30.10
2022-08-19T03:18:48.885Z,28.85
2022-08-19T03:21:24.741Z,29.70
2022-08-19T03:23:51.996Z,28.35
2022-08-19T03:26:19.059Z,29.40
2022-08-19T03:28:51.664Z,29.88
2022-08-19T03:31:44.901Z,31.20
2022-08-19T03:34:14.108Z,30.05
2022-08-19T03:36:41.673Z,28.33
2022-08-19T03:39:09.433Z,28.92
2022-08-19T03:41:44.902Z,29.48
2022-08-19T03:44:19.387Z,29.17
2022-08-19T03:46:51.328Z,28.58
2022-08-19T03:49:18.965Z,30.55
2022-08-19T03:51:47.547Z,31.48
2022-08-19T03:54:15.810Z,31.88
2022-08-19T03:56:43.597Z,29.95
2022-08-19T03:59:12.450Z,31.55
2022-08-19T04:01:39.606Z,31.92
2022-08-19T04:04:06.765Z,31.00
2022-08-19T04:06:39.740Z,32.17
2022-08-19T04:09:08.509Z,30.50
2022-08-19T04:11:43.112Z,32.50
2022-08-19T04:14:12.558Z,35.45
2022-08-19T04:16:39.803Z,33.97
2022-08-19T04:19:07.508Z,34.67
2022-08-19T04:21:35.254Z,33.80
2022-08-19T04:24:02.446Z,32.75
2022-08-19T04:26:33.639Z,32.85
2022-08-19T04:29:01.167Z,32.92
2022-08-19T04:31:29.481Z,33.72
2022-08-19T04:34:01.240Z,34.22
2022-08-19T04:36:30.441Z,32.38
2022-08-19T04:38:58.850Z,32.85
2022-08-19T04:41:45.159Z,35.08
2022-08-19T04:44:12.920Z,32.58
2022-08-19T04:46:50.921Z,33.60
2022-08-19T04:49:20.674Z,33.45
2022-08-19T04:51:51.265Z,35.00
2022-08-19T04:54:34.775Z,35.95
2022-08-19T04:57:07.424Z,35.20
2022-08-19T04:59:34.566Z,35.58
2022-08-19T05:02:01.760Z,34.90
2022-08-19T05:04:32.780Z,33.92
2022-08-19T05:07:00.983Z,32.72
2022-08-19T05:09:52.495Z,33.60
2022-08-19T05:12:16.483Z,32.13
2022-08-19T05:14:43.580Z,32.75
2022-08-19T05:17:27.009Z,31.08
2022-08-19T05:20:13.981Z,33.22
2022-08-19T05:22:41.637Z,31.15
2022-08-19T05:25:12.950Z,29.30
2022-08-19T05:27:41.183Z,30.85
2022-08-19T05:30:08.559Z,30.95
2022-08-19T05:32:35.765Z,31.05
2022-08-19T05:35:03.013Z,31.20
2022-08-19T05:37:30.155Z,32.28
2022-08-19T05:39:57.318Z,31.60
2022-08-19T05:42:24.774Z,30.83
2022-08-19T05:44:52.339Z,29.67
2022-08-19T05:47:20.981Z,31.98
2022-08-19T05:49:48.679Z,28.83
2022-08-19T05:52:18.622Z,27.65
2022-08-19T05:54:48.594Z,28.27
2022-08-19T05:57:18.904Z,28.88
2022-08-19T05:59:58.352Z,27.33
2022-08-19T06:02:31.411Z,28.88
2022-08-19T06:04:58.578Z,29.70
2022-08-19T06:07:25.809Z,26.52
2022-08-19T06:10:00.501Z,26.85
2022-08-19T06:12:32.355Z,29.75
2022-08-19T06:15:01.949Z,29.30
2022-08-19T06:17:31.205Z,30.38
2022-08-19T06:19:59.316Z,30.83
2022-08-19T06:22:26.501Z,31.85
2022-08-19T06:24:56.929Z,32.35
2022-08-19T06:27:24.474Z,33.38
2022-08-19T06:29:51.563Z,32.33
2022-08-19T06:32:20.233Z,33.38
2022-08-19T06:34:47.780Z,36.05
2022-08-19T06:37:15.322Z,37.05
2022-08-19T06:39:43.447Z,35.90
2022-08-19T06:42:12.431Z,34.10
2022-08-19T06:44:43.062Z,36.75
2022-08-19T06:47:14.673Z,37.42
2022-08-19T06:49:50.118Z,35.83
2022-08-19T06:52:17.572Z,35.55
2022-08-19T06:54:56.007Z,32.30
2022-08-19T06:57:24.774Z,35.08
2022-08-19T06:59:52.013Z,37.63
2022-08-19T07:02:19.835Z,38.47
2022-08-19T07:04:46.967Z,40.03
2022-08-19T07:07:21.050Z,36.47
2022-08-19T07:09:51.606Z,38.42
2022-08-19T07:12:25.694Z,42.03
2022-08-19T07:14:54.601Z,41.40
2022-08-19T07:17:21.834Z,39.42
2022-08-19T07:19:49.121Z,42.63
2022-08-19T07:22:17.335Z,41.83
2022-08-19T07:24:51.326Z,39.05
2022-08-19T07:27:24.232Z,39.45
2022-08-19T07:29:57.291Z,43.08
2022-08-19T07:32:28.852Z,40.38
2022-08-19T07:34:56.789Z,42.25
2022-08-19T07:37:31.978Z,37.58
2022-08-19T07:40:00.322Z,40.28
2022-08-19T07:42:30.263Z,38.95
2022-08-19T07:44:57.363Z,37.75
2022-08-19T07:47:48.074Z,37.67
2022-08-19T07:50:12.549Z,36.78
2022-08-19T07:52:40.473Z,35.72
2022-08-19T07:55:40.688Z,37.05
2022-08-19T07:57:56.496Z,37.63
2022-08-19T08:00:24.427Z,34.72
2022-08-19T08:02:52.089Z,37.17
2022-08-19T08:05:43.637Z,37.63
2022-08-19T08:08:30.364Z,35.20
2022-08-19T08:10:57.653Z,31.25
2022-08-19T08:13:25.252Z,29.10
2022-08-19T08:15:54.829Z,29.70
2022-08-19T08:18:27.810Z,22.38
2022-08-19T08:20:58.323Z,25.00
2022-08-19T08:23:26.762Z,29.02
2022-08-19T08:25:55.888Z,25.80
2022-08-19T08:28:23.919Z,30.27
2022-08-19T08:30:51.601Z,29.88
2022-08-19T08:33:28.515Z,29.83
2022-08-19T08:36:00.507Z,27.48
2022-08-19T08:38:29.433Z,28.85
2022-08-19T08:41:10.793Z,27.55
2022-08-19T08:43:40.034Z,25.65
2022-08-19T08:46:07.483Z,25.98
2022-08-19T08:48:52.730Z,24.50
2022-08-19T08:51:22.448Z,24.00
2022-08-19T08:53:56.194Z,22.27
2022-08-19T08:56:24.236Z,20.67
2022-08-19T08:59:10.814Z,17.92
2022-08-19T09:01:37.981Z,18.42
2022-08-19T09:04:06.480Z,16.75
2022-08-19T09:06:37.421Z,18.27
2022-08-19T09:09:14.344Z,19.73
2022-08-19T09:11:56.688Z,20.35
2022-08-19T09:14:51.142Z,19.85
2022-08-19T09:17:19.642Z,17.85
2022-08-19T09:19:52.858Z,17.55
2022-08-19T09:22:25.618Z,15.40
2022-08-19T09:24:54.805Z,15.23
2022-08-19T09:27:42.708Z,14.50
2022-08-19T09:30:23.581Z,15.60
2022-08-19T09:32:53.464Z,13.25
2022-08-19T09:35:23.005Z,13.70
2022-08-19T09:37:50.508Z,12.18
2022-08-19T09:40:21.726Z,14.18
2022-08-19T09:42:52.654Z,13.57
2022-08-19T09:45:22.176Z,14.23
2022-08-19T09:47:50.338Z,15.90
2022-08-19T09:50:19.003Z,14.10
2022-08-19T09:52:57.137Z,11.23
2022-08-19T09:55:31.053Z,12.23
2022-08-19T09:57:58.544Z,14.43
2022-08-19T10:00:25.629Z,14.38
2022-08-19T10:02:53.259Z,15.45
2022-08-19T10:05:39.186Z,14.25
2022-08-19T10:08:13.449Z,12.75
2022-08-19T10:10:46.791Z,11.10
2022-08-19T10:13:14.676Z,15.23
2022-08-19T10:15:47.438Z,17.10
2022-08-19T10:18:18.551Z,16.02
2022-08-19T10:20:51.641Z,15.93
2022-08-19T10:23:20.686Z,17.50
2022-08-19T10:25:48.683Z,17.40
2022-08-19T10:28:16.020Z,17.92
2022-08-19T10:30:43.561Z,15.63
2022-08-19T10:33:11.324Z,18.63
2022-08-19T10:35:56.522Z,16.90
2022-08-19T10:38:31.477Z,16.40
2022-08-19T10:40:59.579Z,19.55
2022-08-19T10:43:26.719Z,17.10
2022-08-19T10:45:59.355Z,16.60
2022-08-19T10:48:26.512Z,13.50
2022-08-19T10:51:22.562Z,13.98
2022-08-19T10:53:50.196Z,16.05
2022-08-19T10:56:36.051Z,15.07
2022-08-19T10:59:04.160Z,17.08
2022-08-19T11:01:33.109Z,17.10
2022-08-19T11:04:00.952Z,14.45
2022-08-19T11:06:28.464Z,14.13
2022-08-19T11:08:56.097Z,13.98
2022-08-19T11:11:23.804Z,14.15
2022-08-19T11:13:51.212Z,13.75
2022-08-19T11:16:20.274Z,11.65
2022-08-19T11:18:50.510Z,13.43
2022-08-19T11:21:19.968Z,9.93
2022-08-19T11:23:48.286Z,12.05
2022-08-19T11:26:16.454Z,10.90
2022-08-19T11:28:44.240Z,9.90
2022-08-19T11:31:15.684Z,10.95
2022-08-19T11:33:47.680Z,10.38
2022-08-19T11:36:15.363Z,8.80
2022-08-19T11:38:43.244Z,8.95
2022-08-19T11:41:10.348Z,7.80
2022-08-19T11:43:37.897Z,8.02
2022-08-19T11:46:09.346Z,10.15
2022-08-19T11:48:36.501Z,9.25
2022-08-19T11:51:07.713Z,10.23
2022-08-19T11:53:35.305Z,9.07
2022-08-19T11:56:02.637Z,9.52
2022-08-19T11:58:30.191Z,9.27
2022-08-19T12:00:57.334Z,8.30
2022-08-19T12:03:24.935Z,7.70
2022-08-19T12:05:52.485Z,7.03
2022-08-19T12:08:20.099Z,7.53
2022-08-19T12:10:47.209Z,7.40
2022-08-19T12:13:19.584Z,6.28
2022-08-19T12:15:48.245Z,6.93
2022-08-19T12:18:15.456Z,6.95
2022-08-19T12:20:43.986Z,6.75
2022-08-19T12:23:11.875Z,7.40
2022-08-19T12:25:39.324Z,6.95
2022-08-19T12:28:06.409Z,6.47
2022-08-19T12:30:33.441Z,5.45
2022-08-19T12:33:00.508Z,7.68
2022-08-19T12:35:28.286Z,7.03
2022-08-19T12:37:57.326Z,6.07
2022-08-19T12:40:26.532Z,7.10
2022-08-19T12:42:54.052Z,7.30
2022-08-19T12:45:21.268Z,5.63
2022-08-19T12:47:49.707Z,6.63
2022-08-19T12:50:17.216Z,6.60
2022-08-19T12:52:44.331Z,6.00
2022-08-19T12:55:12.994Z,6.78
2022-08-19T12:57:40.220Z,5.50
2022-08-19T13:00:12.764Z,5.60
2022-08-19T13:02:41.528Z,6.20
2022-08-19T13:05:09.699Z,5.97
2022-08-19T13:07:38.728Z,5.18
2022-08-19T13:10:07.127Z,5.65
2022-08-19T13:12:34.284Z,4.75
2022-08-19T13:15:01.545Z,4.85
2022-08-19T13:17:29.761Z,5.95
2022-08-19T13:19:56.840Z,6.13
2022-08-19T13:22:25.899Z,5.70
2022-08-19T13:24:53.742Z,5.15
2022-08-19T13:27:20.822Z,5.55
2022-08-19T13:30:06.433Z,6.00
2022-08-19T13:32:52.142Z,5.13
2022-08-19T13:35:19.241Z,4.47
2022-08-19T13:37:46.372Z,5.28
2022-08-19T13:40:18.098Z,5.95
2022-08-19T13:42:48.021Z,4.70
2022-08-19T13:45:16.162Z,3.95
2022-08-19T13:47:44.975Z,5.43
2022-08-19T13:50:12.794Z,5.10
2022-08-19T13:52:40.373Z,4.75
2022-08-19T13:55:08.273Z,4.47
2022-08-19T13:57:36.105Z,5.82
2022-08-19T14:00:04.666Z,5.82
2022-08-19T14:02:31.732Z,4.90
2022-08-19T14:04:59.857Z,5.20
2022-08-19T14:07:26.992Z,5.13
2022-08-19T14:09:54.055Z,5.53
2022-08-19T14:12:28.727Z,6.35
2022-08-19T14:14:56.246Z,5.57
2022-08-19T14:17:23.395Z,6.18
2022-08-19T14:19:50.497Z,6.50
2022-08-19T14:22:22.150Z,6.43
2022-08-19T14:24:51.054Z,6.53
2022-08-19T14:27:18.121Z,6.15
2022-08-19T14:29:46.362Z,5.82
2022-08-19T14:32:16.758Z,6.70
2022-08-19T14:34:46.611Z,5.90
2022-08-19T14:37:17.411Z,5.82
2022-08-19T14:39:45.818Z,5.45
2022-08-19T14:42:15.361Z,5.57
2022-08-19T14:44:43.210Z,5.80
2022-08-19T14:47:10.842Z,5.45
2022-08-19T14:49:42.239Z,4.65
2022-08-19T14:52:11.946Z,4.93
2022-08-19T14:54:39.072Z,5.70
2022-08-19T14:57:06.131Z,5.35
2022-08-19T14:59:33.456Z,5.60
2022-08-19T15:02:20.204Z,5.65
2022-08-19T15:04:48.029Z,5.85
2022-08-19T15:07:28.932Z,5.53
2022-08-19T15:09:56.872Z,4.75
2022-08-19T15:12:24.052Z,4.95
2022-08-19T15:14:51.909Z,4.00
2022-08-19T15:17:32.396Z,5.22
2022-08-19T15:20:11.164Z,6.28
2022-08-19T15:22:38.449Z,5.60
2022-08-19T15:25:06.933Z,4.80
2022-08-19T15:27:35.139Z,5.07
2022-08-19T15:30:02.274Z,3.95
2022-08-19T15:32:29.693Z,3.97
2022-08-19T15:34:57.014Z,4.18
2022-08-19T15:37:25.105Z,4.10
2022-08-19T15:39:52.356Z,4.13
2022-08-19T15:42:29.593Z,4.60
2022-08-19T15:45:00.709Z,4.10
2022-08-19T15:47:34.882Z,4.15
2022-08-19T15:50:05.468Z,3.78
2022-08-19T15:52:32.518Z,3.90
2022-08-19T15:55:00.724Z,4.07
2022-08-19T15:57:27.823Z,4.00
2022-08-19T16:00:18.181Z,3.83
2022-08-19T16:03:03.988Z,4.32
2022-08-19T16:05:49.978Z,4.18
2022-08-19T16:08:17.165Z,4.00
2022-08-19T16:10:44.229Z,4.45
2022-08-19T16:13:11.354Z,3.90
2022-08-19T16:15:39.911Z,4.55
2022-08-19T16:18:06.989Z,4.47
2022-08-19T16:20:35.509Z,4.53
2022-08-19T16:23:04.723Z,4.38
2022-08-19T16:25:31.875Z,3.95
2022-08-19T16:28:07.572Z,3.58
2022-08-19T16:30:35.799Z,4.00
2022-08-19T16:33:02.892Z,3.95
2022-08-19T16:35:30.379Z,3.80
2022-08-19T16:37:57.503Z,3.47
2022-08-19T16:40:25.046Z,3.00
2022-08-19T16:42:53.505Z,3.05
2022-08-19T16:45:21.849Z,2.80
2022-08-19T16:47:49.065Z,3.05
2022-08-19T16:50:21.996Z,3.17
2022-08-19T16:52:52.421Z,4.43
2022-08-19T16:55:22.048Z,4.07
2022-08-19T16:57:50.525Z,3.92
2022-08-19T17:00:17.678Z,3.55
2022-08-19T17:02:44.831Z,3.08
2022-08-19T17:05:11.949Z,3.17
2022-08-19T17:07:39.013Z,3.00
2022-08-19T17:10:06.523Z,3.42
2022-08-19T17:12:35.007Z,4.05
2022-08-19T17:15:02.694Z,3.90
2022-08-19T17:17:30.214Z,3.83
2022-08-19T17:19:58.940Z,4.20
2022-08-19T17:22:26.032Z,3.60
2022-08-19T17:24:58.406Z,3.95
2022-08-19T17:27:26.270Z,3.75
2022-08-19T17:29:53.451Z,3.45
2022-08-19T17:32:25.092Z,3.33
2022-08-19T17:34:53.982Z,3.13
2022-08-19T17:37:21.062Z,2.85
2022-08-19T17:39:48.207Z,2.70
2022-08-19T17:42:15.313Z,3.15
2022-08-19T17:44:42.389Z,2.88
2022-08-19T17:47:12.892Z,2.40
2022-08-19T17:49:40.072Z,2.30
2022-08-19T17:52:10.096Z,2.72
2022-08-19T17:54:37.392Z,2.88
2022-08-19T17:57:04.532Z,4.10
2022-08-19T17:59:31.736Z,4.40
2022-08-19T18:02:00.038Z,3.97
2022-08-19T18:04:27.433Z,3.90
2022-08-19T18:06:55.770Z,3.95
2022-08-19T18:09:24.592Z,3.83
2022-08-19T18:11:53.119Z,3.78
2022-08-19T18:14:28.157Z,4.95
2022-08-19T18:16:59.759Z,4.40
2022-08-19T18:19:40.784Z,4.53
2022-08-19T18:22:09.479Z,4.70
2022-08-19T18:24:39.001Z,4.47
2022-08-19T18:27:06.982Z,4.97
2022-08-19T18:29:37.250Z,4.72
2022-08-19T18:32:04.513Z,4.95
2022-08-19T18:34:31.608Z,4.68
2022-08-19T18:36:58.655Z,4.60
2022-08-19T18:39:45.205Z,4.68
2022-08-19T18:42:35.015Z,5.07
2022-08-19T18:45:21.158Z,4.85
2022-08-19T18:48:07.689Z,5.10
2022-08-19T18:50:49.177Z,5.03
2022-08-19T18:53:16.502Z,4.97
2022-08-19T18:55:44.741Z,4.75
2022-08-19T18:58:11.929Z,5.28
2022-08-19T19:00:40.736Z,5.10
2022-08-19T19:03:08.396Z,4.78
2022-08-19T19:05:35.538Z,5.10
2022-08-19T19:08:02.638Z,5.25
2022-08-19T19:10:29.683Z,4.65
2022-08-19T19:12:56.808Z,3.50
2022-08-19T19:15:23.911Z,3.63
2022-08-19T19:17:50.994Z,3.50
2022-08-19T19:20:18.506Z,3.33
2022-08-19T19:22:45.642Z,3.30
2022-08-19T19:25:13.469Z,2.83
2022-08-19T19:27:40.540Z,2.83
2022-08-19T19:30:08.316Z,2.83
2022-08-19T19:32:39.219Z,3.10
2022-08-19T19:35:07.211Z,3.00
2022-08-19T19:37:34.417Z,2.97
2022-08-19T19:40:01.520Z,2.63
2022-08-19T19:42:28.747Z,3.25
2022-08-19T19:44:57.014Z,2.92
2022-08-19T19:47:25.536Z,2.70
2022-08-19T19:52:40.199Z,2.80
2022-08-19T19:55:09.109Z,2.85
2022-08-19T19:57:37.329Z,3.30
2022-08-19T20:00:04.889Z,3.05
2022-08-19T20:02:31.965Z,2.92
2022-08-19T20:04:59.150Z,2.97
2022-08-19T20:07:46.195Z,3.13
2022-08-19T20:10:13.682Z,3.30
2022-08-19T20:12:40.775Z,2.70
2022-08-19T20:15:08.565Z,2.80
2022-08-19T20:17:41.160Z,2.90
2022-08-19T20:20:09.864Z,3.33
2022-08-19T20:22:40.167Z,3.25
2022-08-19T20:25:14.325Z,3.50
2022-08-19T20:27:41.885Z,3.33
2022-08-19T20:30:13.002Z,3.38
2022-08-19T20:32:46.832Z,3.33
2022-08-19T20:35:15.369Z,3.40
2022-08-19T20:37:42.418Z,3.63
2022-08-19T20:40:10.349Z,3.40
2022-08-19T20:42:40.141Z,3.47
2022-08-19T20:45:08.404Z,3.42
2022-08-19T20:47:55.350Z,3.22
2022-08-19T20:50:23.081Z,3.75
2022-08-19T20:52:53.657Z,3.67
2022-08-19T20:55:21.971Z,3.50
2022-08-19T20:57:49.080Z,3.90
2022-08-19T21:00:16.320Z,4.00
2022-08-19T21:02:43.405Z,4.07
2022-08-19T21:05:11.114Z,4.18
2022-08-19T21:07:39.483Z,4.35
2022-08-19T21:10:07.138Z,4.55
2022-08-19T21:12:34.657Z,4.30
2022-08-19T21:15:01.729Z,3.70
2022-08-19T21:17:28.830Z,4.40
2022-08-19T21:19:55.878Z,4.07
2022-08-19T21:22:23.053Z,4.60
2022-08-19T21:24:50.174Z,4.43
2022-08-19T21:27:17.241Z,4.45
2022-08-19T21:29:44.356Z,4.20
2022-08-19T21:32:14.582Z,4.05
2022-08-19T21:34:42.780Z,4.13
2022-08-19T21:37:25.153Z,4.05
2022-08-19T21:39:53.580Z,4.00
2022-08-19T21:42:20.721Z,4.13
2022-08-19T21:44:47.782Z,3.95
2022-08-19T21:47:15.045Z,3.78
2022-08-19T21:49:42.206Z,3.10
2022-08-19T21:52:09.445Z,3.53
2022-08-19T21:54:37.722Z,3.70
2022-08-19T21:57:10.040Z,3.40
2022-08-19T21:59:39.598Z,3.78
2022-08-19T22:02:19.444Z,3.58
2022-08-19T22:04:47.702Z,3.25
2022-08-19T22:07:15.117Z,3.35
2022-08-19T22:09:42.721Z,3.58
2022-08-19T22:12:10.729Z,3.15
2022-08-19T22:14:38.678Z,3.67
2022-08-19T22:17:06.025Z,4.00
2022-08-19T22:19:33.178Z,4.32
2022-08-19T22:22:01.269Z,3.90
2022-08-19T22:24:28.413Z,4.22
2022-08-19T22:26:55.582Z,4.07
2022-08-19T22:29:33.674Z,4.68
2022-08-19T22:32:17.793Z,4.28
2022-08-19T22:34:48.726Z,4.35
2022-08-19T22:37:15.840Z,4.20
2022-08-19T22:39:42.949Z,4.10
2022-08-19T22:42:11.550Z,4.60
2022-08-19T22:44:38.652Z,4.47
2022-08-19T22:47:05.983Z,4.30
2022-08-19T22:49:33.146Z,3.97
2022-08-19T22:52:17.652Z,3.53
2022-08-19T22:54:49.642Z,3.95
2022-08-19T22:57:19.392Z,4.53
2022-08-19T22:59:48.108Z,4.55
2022-08-19T23:02:23.185Z,4.85
2022-08-19T23:04:50.699Z,4.80
2022-08-19T23:07:18.461Z,4.95
2022-08-19T23:09:50.849Z,5.38
2022-08-19T23:12:26.227Z,4.95
2022-08-19T23:14:53.314Z,5.20
2022-08-19T23:17:20.573Z,4.95
2022-08-19T23:19:47.729Z,5.30
2022-08-19T23:22:18.482Z,5.50
2022-08-19T23:24:45.596Z,5.68
2022-08-19T23:27:31.501Z,5.47
2022-08-19T23:30:17.599Z,5.75
2022-08-19T23:32:45.933Z,5.45
2022-08-19T23:35:13.457Z,5.72
2022-08-19T23:37:40.539Z,6.15
2022-08-19T23:40:08.764Z,5.82
2022-08-19T23:42:35.915Z,5.90
2022-08-19T23:45:03.862Z,6.05
2022-08-19T23:47:31.845Z,5.60
2022-08-19T23:50:01.733Z,5.78
2022-08-19T23:52:29.358Z,5.85
2022-08-19T23:55:00.336Z,6.20
2022-08-19T23:57:27.396Z,6.15
2022-08-19T23:59:54.466Z,5.78
